Terminal Aerodrome Forecast
Issued by NWS

Current Version | Previous Version | Text Only | Print | Product List | Glossary On
Versions: 1 2 3 4 5 6 7 8 9 10 11 12 13 14 15 16
000
FTUS42 KTAE 021200 AAA
TAFDHN
TAF AMD
KDHN 021245Z 0213/0312 06005KT 1SM BR OVC003
      TEMPO 0213/0215 1/4SM FG VV002
     FM021500 VRB03KT 5SM BR OVC007
     FM021800 VRB04KT P6SM BKN025 OVC050
     FM030000 VRB04KT P6SM OVC050
     FM030900 00000KT 1/4SM FG OVC015=

USA.gov is the U.S. government's official web portal to all federal, state and local government web resources and services.